Portada
METAR-TAF:

METAR-TAF

Aeropuertos :

Ghriss, Argelia

latitud: 35-12N, longitud: 000-08E, altitud: 514 m

Observación

El informe se hizo hace 1 hora y 6 minutos, a las 00:00 UTC
Viento 3 kt del sur
Temperatura 8°C
Humedad 81%
Presión 1024 hPa
Visibilidad 10 km o más
sin nubes por debajo de 1500 m y sin presencia de cumulonimbus.

METAR: DAOV 210000Z 18003KT CAVOK 08/05 Q1024

Hora: 02:06 (01:06 UTC)

Pronóstico

El informe se hizo hace 2 horas y 6 minutos, a las 23:00 UTC
Pronóstico válido del 21 a las 00 UTC al 21 a las 09 UTC
Viento 2 kt con dirección variable
Visibilidad 10 km o más
sin nubes por debajo de 1500 m y sin presencia de cumulonimbus.
Probabilidad 40% :
Temporalmente
del 21 a las 03 UTC al 21 a las 06 UTC
Visibilidad: 5000 m
Nubes dispersas a una altura de 1600 ft
neblina

TAF: DAOV 202300Z 2100/2109 VRB02KT CAVOK PROB40 TEMPO 2103/2106 5000 BR SCT016

Observaciones y pronósticos meteorológicos de más de 4000 aeropuertos (mensajes METAR y TAF).

Los puntos amarillos y rojos representan las estaciones disponibles.

Ponga el ratón en el punto deseado para ver el nombre de la estación.

Haga clic para ver las observaciones y los pronósticos meteorológicos.

Para cambiar el mapa : haga clic en los botones verdes con una cruz de color negro para hacer un zoom, en el botón verde con un guión para alejar o en las flechas verdes para mapas adyacentes.


METAR-TAF: